sensor_id;sensor_type;location;lat;lon;timestamp;P1;durP1;ratioP1;P2;durP2;ratioP2
46230;SDS011;31949;51.404;-0.038;2023-11-21T00:01:23;4.45;;;2.97;;
46230;SDS011;31949;51.404;-0.038;2023-11-21T00:03:50;6.03;;;3.15;;
46230;SDS011;31949;51.404;-0.038;2023-11-21T00:06:21;8.27;;;3.50;;
46230;SDS011;31949;51.404;-0.038;2023-11-21T00:08:48;4.38;;;3.10;;
46230;SDS011;31949;51.404;-0.038;2023-11-21T00:11:15;4.50;;;2.40;;
46230;SDS011;31949;51.404;-0.038;2023-11-21T00:13:43;3.33;;;2.60;;
46230;SDS011;31949;51.404;-0.038;2023-11-21T00:16:10;3.13;;;2.60;;
46230;SDS011;31949;51.404;-0.038;2023-11-21T00:18:37;3.88;;;2.97;;
46230;SDS011;31949;51.404;-0.038;2023-11-21T00:21:05;3.80;;;3.17;;
46230;SDS011;31949;51.404;-0.038;2023-11-21T00:23:32;4.18;;;2.97;;
46230;SDS011;31949;51.404;-0.038;2023-11-21T00:25:59;4.45;;;3.10;;
46230;SDS011;31949;51.404;-0.038;2023-11-21T00:28:27;5.32;;;3.35;;
46230;SDS011;31949;51.404;-0.038;2023-11-21T00:30:54;4.05;;;3.63;;
46230;SDS011;31949;51.404;-0.038;2023-11-21T00:33:21;3.17;;;2.88;;
46230;SDS011;31949;51.404;-0.038;2023-11-21T00:35:48;4.30;;;3.78;;
46230;SDS011;31949;51.404;-0.038;2023-11-21T00:38:16;5.00;;;3.75;;
46230;SDS011;31949;51.404;-0.038;2023-11-21T00:40:46;4.45;;;3.33;;
46230;SDS011;31949;51.404;-0.038;2023-11-21T00:43:13;5.00;;;3.97;;
46230;SDS011;31949;51.404;-0.038;2023-11-21T00:45:41;4.25;;;3.88;;
46230;SDS011;31949;51.404;-0.038;2023-11-21T00:48:09;6.28;;;4.38;;
46230;SDS011;31949;51.404;-0.038;2023-11-21T00:50:36;5.13;;;4.45;;
46230;SDS011;31949;51.404;-0.038;2023-11-21T00:53:03;5.47;;;4.47;;
46230;SDS011;31949;51.404;-0.038;2023-11-21T00:55:30;5.45;;;4.70;;
46230;SDS011;31949;51.404;-0.038;2023-11-21T00:57:59;5.35;;;4.60;;
46230;SDS011;31949;51.404;-0.038;2023-11-21T01:00:26;5.40;;;4.90;;
46230;SDS011;31949;51.404;-0.038;2023-11-21T01:02:53;6.55;;;4.95;;
46230;SDS011;31949;51.404;-0.038;2023-11-21T01:05:21;5.00;;;4.50;;
46230;SDS011;31949;51.404;-0.038;2023-11-21T01:07:48;6.78;;;4.80;;
46230;SDS011;31949;51.404;-0.038;2023-11-21T01:10:16;5.07;;;4.57;;
46230;SDS011;31949;51.404;-0.038;2023-11-21T01:12:44;5.18;;;4.68;;
46230;SDS011;31949;51.404;-0.038;2023-11-21T01:15:11;4.65;;;4.25;;
46230;SDS011;31949;51.404;-0.038;2023-11-21T01:17:39;5.05;;;4.55;;
46230;SDS011;31949;51.404;-0.038;2023-11-21T01:20:07;4.72;;;4.13;;
46230;SDS011;31949;51.404;-0.038;2023-11-21T01:22:40;5.82;;;4.70;;
46230;SDS011;31949;51.404;-0.038;2023-11-21T01:25:08;6.80;;;4.82;;
46230;SDS011;31949;51.404;-0.038;2023-11-21T01:27:36;4.85;;;4.32;;
46230;SDS011;31949;51.404;-0.038;2023-11-21T01:30:06;5.78;;;5.28;;
46230;SDS011;31949;51.404;-0.038;2023-11-21T01:32:34;5.78;;;4.85;;
46230;SDS011;31949;51.404;-0.038;2023-11-21T01:35:02;5.63;;;5.15;;
46230;SDS011;31949;51.404;-0.038;2023-11-21T01:37:32;5.50;;;4.93;;
46230;SDS011;31949;51.404;-0.038;2023-11-21T01:40:00;5.30;;;4.80;;
46230;SDS011;31949;51.404;-0.038;2023-11-21T01:42:28;4.57;;;4.18;;
46230;SDS011;31949;51.404;-0.038;2023-11-21T01:44:56;4.50;;;3.60;;
46230;SDS011;31949;51.404;-0.038;2023-11-21T01:47:23;3.55;;;3.15;;
46230;SDS011;31949;51.404;-0.038;2023-11-21T01:49:50;4.25;;;3.13;;
46230;SDS011;31949;51.404;-0.038;2023-11-21T01:52:18;3.40;;;3.10;;
46230;SDS011;31949;51.404;-0.038;2023-11-21T01:54:46;3.97;;;3.47;;
46230;SDS011;31949;51.404;-0.038;2023-11-21T01:57:14;2.85;;;2.65;;
46230;SDS011;31949;51.404;-0.038;2023-11-21T01:59:42;3.30;;;2.53;;
46230;SDS011;31949;51.404;-0.038;2023-11-21T02:02:12;3.13;;;2.83;;
46230;SDS011;31949;51.404;-0.038;2023-11-21T02:04:39;2.90;;;2.45;;
46230;SDS011;31949;51.404;-0.038;2023-11-21T02:07:07;4.07;;;3.20;;
46230;SDS011;31949;51.404;-0.038;2023-11-21T02:09:34;5.72;;;2.72;;
46230;SDS011;31949;51.404;-0.038;2023-11-21T02:12:04;2.80;;;2.53;;
46230;SDS011;31949;51.404;-0.038;2023-11-21T02:14:32;3.40;;;3.10;;
46230;SDS011;31949;51.404;-0.038;2023-11-21T02:17:00;2.53;;;2.33;;
46230;SDS011;31949;51.404;-0.038;2023-11-21T02:19:27;2.72;;;2.20;;
46230;SDS011;31949;51.404;-0.038;2023-11-21T02:21:57;4.07;;;2.33;;
46230;SDS011;31949;51.404;-0.038;2023-11-21T02:24:27;3.50;;;2.50;;
46230;SDS011;31949;51.404;-0.038;2023-11-21T02:26:55;2.08;;;1.90;;
46230;SDS011;31949;51.404;-0.038;2023-11-21T02:29:22;2.00;;;1.80;;
46230;SDS011;31949;51.404;-0.038;2023-11-21T02:31:54;2.80;;;2.53;;
46230;SDS011;31949;51.404;-0.038;2023-11-21T02:34:22;3.20;;;2.20;;
46230;SDS011;31949;51.404;-0.038;2023-11-21T02:36:52;2.80;;;2.50;;
46230;SDS011;31949;51.404;-0.038;2023-11-21T02:39:20;3.30;;;2.80;;
46230;SDS011;31949;51.404;-0.038;2023-11-21T02:41:51;3.45;;;2.35;;
46230;SDS011;31949;51.404;-0.038;2023-11-21T02:44:18;3.05;;;2.75;;
46230;SDS011;31949;51.404;-0.038;2023-11-21T02:46:46;6.20;;;3.05;;
46230;SDS011;31949;51.404;-0.038;2023-11-21T02:49:13;3.17;;;2.88;;
46230;SDS011;31949;51.404;-0.038;2023-11-21T02:51:41;3.20;;;2.90;;
46230;SDS011;31949;51.404;-0.038;2023-11-21T02:54:08;3.47;;;3.15;;
46230;SDS011;31949;51.404;-0.038;2023-11-21T02:56:35;3.53;;;3.17;;
46230;SDS011;31949;51.404;-0.038;2023-11-21T02:59:02;3.60;;;3.30;;
46230;SDS011;31949;51.404;-0.038;2023-11-21T03:01:30;5.55;;;3.45;;
46230;SDS011;31949;51.404;-0.038;2023-11-21T03:03:57;4.38;;;3.97;;
46230;SDS011;31949;51.404;-0.038;2023-11-21T03:06:25;4.90;;;4.03;;
46230;SDS011;31949;51.404;-0.038;2023-11-21T03:08:52;4.88;;;4.47;;
46230;SDS011;31949;51.404;-0.038;2023-11-21T03:11:19;7.05;;;5.00;;
46230;SDS011;31949;51.404;-0.038;2023-11-21T03:13:46;5.40;;;4.25;;
46230;SDS011;31949;51.404;-0.038;2023-11-21T03:16:15;4.10;;;3.30;;
46230;SDS011;31949;51.404;-0.038;2023-11-21T03:18:43;4.35;;;3.78;;
46230;SDS011;31949;51.404;-0.038;2023-11-21T03:21:11;4.00;;;3.60;;
46230;SDS011;31949;51.404;-0.038;2023-11-21T03:23:40;5.40;;;3.95;;
46230;SDS011;31949;51.404;-0.038;2023-11-21T03:26:11;3.47;;;3.17;;
46230;SDS011;31949;51.404;-0.038;2023-11-21T03:28:39;4.57;;;3.13;;
46230;SDS011;31949;51.404;-0.038;2023-11-21T03:31:07;3.67;;;2.60;;
46230;SDS011;31949;51.404;-0.038;2023-11-21T03:33:35;3.30;;;3.00;;
46230;SDS011;31949;51.404;-0.038;2023-11-21T03:36:03;4.68;;;3.20;;
46230;SDS011;31949;51.404;-0.038;2023-11-21T03:38:30;3.22;;;2.78;;
46230;SDS011;31949;51.404;-0.038;2023-11-21T03:40:57;3.05;;;2.75;;
46230;SDS011;31949;51.404;-0.038;2023-11-21T03:43:27;2.65;;;2.45;;
46230;SDS011;31949;51.404;-0.038;2023-11-21T03:45:55;3.15;;;2.85;;
46230;SDS011;31949;51.404;-0.038;2023-11-21T03:48:22;2.85;;;2.65;;
46230;SDS011;31949;51.404;-0.038;2023-11-21T03:50:49;2.40;;;1.95;;
46230;SDS011;31949;51.404;-0.038;2023-11-21T03:53:16;2.58;;;2.00;;
46230;SDS011;31949;51.404;-0.038;2023-11-21T03:55:43;3.78;;;1.65;;
46230;SDS011;31949;51.404;-0.038;2023-11-21T03:58:11;4.00;;;2.20;;
46230;SDS011;31949;51.404;-0.038;2023-11-21T04:00:39;2.20;;;2.00;;
46230;SDS011;31949;51.404;-0.038;2023-11-21T04:03:06;2.15;;;1.95;;
46230;SDS011;31949;51.404;-0.038;2023-11-21T04:05:33;2.00;;;1.55;;
46230;SDS011;31949;51.404;-0.038;2023-11-21T04:08:00;1.70;;;1.60;;
46230;SDS011;31949;51.404;-0.038;2023-11-21T04:10:27;2.45;;;1.70;;
46230;SDS011;31949;51.404;-0.038;2023-11-21T04:12:55;3.75;;;1.67;;
46230;SDS011;31949;51.404;-0.038;2023-11-21T04:15:22;1.92;;;1.20;;
46230;SDS011;31949;51.404;-0.038;2023-11-21T04:17:49;1.70;;;1.42;;
46230;SDS011;31949;51.404;-0.038;2023-11-21T04:20:17;1.05;;;1.05;;
46230;SDS011;31949;51.404;-0.038;2023-11-21T04:22:44;1.73;;;1.45;;
46230;SDS011;31949;51.404;-0.038;2023-11-21T04:25:13;1.98;;;1.80;;
46230;SDS011;31949;51.404;-0.038;2023-11-21T04:27:43;1.33;;;1.23;;
46230;SDS011;31949;51.404;-0.038;2023-11-21T04:30:11;1.83;;;1.45;;
46230;SDS011;31949;51.404;-0.038;2023-11-21T04:32:40;1.90;;;1.58;;
46230;SDS011;31949;51.404;-0.038;2023-11-21T04:35:08;1.55;;;1.27;;
46230;SDS011;31949;51.404;-0.038;2023-11-21T04:37:36;1.27;;;1.17;;
46230;SDS011;31949;51.404;-0.038;2023-11-21T04:40:03;1.33;;;0.90;;
46230;SDS011;31949;51.404;-0.038;2023-11-21T04:42:34;1.77;;;1.35;;
46230;SDS011;31949;51.404;-0.038;2023-11-21T04:45:05;1.55;;;1.40;;
46230;SDS011;31949;51.404;-0.038;2023-11-21T04:47:38;1.38;;;1.23;;
46230;SDS011;31949;51.404;-0.038;2023-11-21T04:50:05;2.25;;;1.45;;
46230;SDS011;31949;51.404;-0.038;2023-11-21T04:52:33;1.10;;;1.00;;
46230;SDS011;31949;51.404;-0.038;2023-11-21T04:55:00;1.63;;;1.10;;
46230;SDS011;31949;51.404;-0.038;2023-11-21T04:57:29;1.30;;;1.10;;
46230;SDS011;31949;51.404;-0.038;2023-11-21T04:59:56;1.52;;;1.02;;
46230;SDS011;31949;51.404;-0.038;2023-11-21T05:02:23;1.55;;;1.20;;
46230;SDS011;31949;51.404;-0.038;2023-11-21T05:05:01;1.73;;;1.10;;
46230;SDS011;31949;51.404;-0.038;2023-11-21T05:07:29;1.80;;;1.17;;
46230;SDS011;31949;51.404;-0.038;2023-11-21T05:09:58;3.28;;;1.58;;
46230;SDS011;31949;51.404;-0.038;2023-11-21T05:12:25;1.70;;;1.10;;
46230;SDS011;31949;51.404;-0.038;2023-11-21T05:14:53;1.58;;;1.10;;
46230;SDS011;31949;51.404;-0.038;2023-11-21T05:17:20;2.30;;;1.02;;
46230;SDS011;31949;51.404;-0.038;2023-11-21T05:19:49;1.58;;;1.05;;
46230;SDS011;31949;51.404;-0.038;2023-11-21T05:22:16;1.42;;;1.10;;
46230;SDS011;31949;51.404;-0.038;2023-11-21T05:24:43;1.40;;;1.30;;
46230;SDS011;31949;51.404;-0.038;2023-11-21T05:27:10;2.63;;;1.45;;
46230;SDS011;31949;51.404;-0.038;2023-11-21T05:29:38;4.75;;;1.63;;
46230;SDS011;31949;51.404;-0.038;2023-11-21T05:32:05;2.08;;;1.27;;
46230;SDS011;31949;51.404;-0.038;2023-11-21T05:34:32;1.95;;;1.20;;
46230;SDS011;31949;51.404;-0.038;2023-11-21T05:37:00;2.33;;;1.73;;
46230;SDS011;31949;51.404;-0.038;2023-11-21T05:39:27;3.28;;;1.60;;
46230;SDS011;31949;51.404;-0.038;2023-11-21T05:41:54;1.50;;;1.38;;
46230;SDS011;31949;51.404;-0.038;2023-11-21T05:44:21;2.13;;;1.92;;
46230;SDS011;31949;51.404;-0.038;2023-11-21T05:46:50;3.45;;;1.77;;
46230;SDS011;31949;51.404;-0.038;2023-11-21T05:49:17;1.70;;;1.58;;
46230;SDS011;31949;51.404;-0.038;2023-11-21T05:51:48;1.70;;;1.33;;
46230;SDS011;31949;51.404;-0.038;2023-11-21T05:54:15;2.17;;;1.67;;
46230;SDS011;31949;51.404;-0.038;2023-11-21T05:56:43;6.18;;;2.53;;
46230;SDS011;31949;51.404;-0.038;2023-11-21T05:59:10;2.47;;;1.75;;
46230;SDS011;31949;51.404;-0.038;2023-11-21T06:01:38;2.53;;;1.73;;
46230;SDS011;31949;51.404;-0.038;2023-11-21T06:04:05;3.10;;;1.70;;
46230;SDS011;31949;51.404;-0.038;2023-11-21T06:06:35;2.28;;;2.05;;
46230;SDS011;31949;51.404;-0.038;2023-11-21T06:09:02;3.17;;;2.08;;
46230;SDS011;31949;51.404;-0.038;2023-11-21T06:11:30;3.40;;;1.55;;
46230;SDS011;31949;51.404;-0.038;2023-11-21T06:13:57;2.22;;;1.73;;
46230;SDS011;31949;51.404;-0.038;2023-11-21T06:16:25;2.33;;;1.95;;
46230;SDS011;31949;51.404;-0.038;2023-11-21T06:18:52;4.47;;;1.73;;
46230;SDS011;31949;51.404;-0.038;2023-11-21T06:21:19;2.53;;;2.03;;
46230;SDS011;31949;51.404;-0.038;2023-11-21T06:23:46;4.47;;;1.55;;
46230;SDS011;31949;51.404;-0.038;2023-11-21T06:26:18;2.75;;;1.38;;
46230;SDS011;31949;51.404;-0.038;2023-11-21T06:28:45;4.45;;;1.35;;
46230;SDS011;31949;51.404;-0.038;2023-11-21T06:31:12;2.53;;;1.50;;
46230;SDS011;31949;51.404;-0.038;2023-11-21T06:33:40;1.70;;;1.33;;
46230;SDS011;31949;51.404;-0.038;2023-11-21T06:36:08;1.65;;;1.30;;
46230;SDS011;31949;51.404;-0.038;2023-11-21T06:38:38;1.70;;;1.45;;
46230;SDS011;31949;51.404;-0.038;2023-11-21T06:41:05;3.00;;;1.48;;
46230;SDS011;31949;51.404;-0.038;2023-11-21T06:43:34;4.18;;;1.75;;
46230;SDS011;31949;51.404;-0.038;2023-11-21T06:46:01;2.63;;;1.67;;
46230;SDS011;31949;51.404;-0.038;2023-11-21T06:48:28;4.15;;;1.33;;
46230;SDS011;31949;51.404;-0.038;2023-11-21T06:50:56;3.25;;;1.30;;
46230;SDS011;31949;51.404;-0.038;2023-11-21T06:53:24;3.22;;;1.33;;
46230;SDS011;31949;51.404;-0.038;2023-11-21T06:55:51;2.00;;;0.95;;
46230;SDS011;31949;51.404;-0.038;2023-11-21T06:58:18;1.65;;;1.00;;
46230;SDS011;31949;51.404;-0.038;2023-11-21T07:00:46;3.60;;;1.15;;
46230;SDS011;31949;51.404;-0.038;2023-11-21T07:03:13;3.53;;;1.30;;
46230;SDS011;31949;51.404;-0.038;2023-11-21T07:05:41;2.10;;;1.10;;
46230;SDS011;31949;51.404;-0.038;2023-11-21T07:08:08;1.55;;;1.05;;
46230;SDS011;31949;51.404;-0.038;2023-11-21T07:10:35;1.73;;;1.08;;
46230;SDS011;31949;51.404;-0.038;2023-11-21T07:13:03;4.50;;;1.10;;
46230;SDS011;31949;51.404;-0.038;2023-11-21T07:15:30;1.73;;;1.13;;
46230;SDS011;31949;51.404;-0.038;2023-11-21T07:17:58;2.83;;;1.30;;
46230;SDS011;31949;51.404;-0.038;2023-11-21T07:20:25;3.63;;;1.30;;
46230;SDS011;31949;51.404;-0.038;2023-11-21T07:22:53;3.08;;;1.23;;
46230;SDS011;31949;51.404;-0.038;2023-11-21T07:25:21;3.47;;;1.50;;
46230;SDS011;31949;51.404;-0.038;2023-11-21T07:27:48;2.35;;;1.50;;
46230;SDS011;31949;51.404;-0.038;2023-11-21T07:30:16;1.92;;;1.60;;
46230;SDS011;31949;51.404;-0.038;2023-11-21T07:32:44;2.80;;;1.33;;
46230;SDS011;31949;51.404;-0.038;2023-11-21T07:35:13;1.75;;;1.30;;
46230;SDS011;31949;51.404;-0.038;2023-11-21T07:37:40;2.60;;;1.83;;
46230;SDS011;31949;51.404;-0.038;2023-11-21T07:40:08;3.38;;;1.40;;
46230;SDS011;31949;51.404;-0.038;2023-11-21T07:42:36;3.75;;;1.80;;
46230;SDS011;31949;51.404;-0.038;2023-11-21T07:45:04;3.45;;;1.80;;
46230;SDS011;31949;51.404;-0.038;2023-11-21T07:47:33;2.78;;;1.92;;
46230;SDS011;31949;51.404;-0.038;2023-11-21T07:50:02;2.65;;;2.00;;
46230;SDS011;31949;51.404;-0.038;2023-11-21T07:52:31;3.72;;;2.00;;
46230;SDS011;31949;51.404;-0.038;2023-11-21T07:54:58;3.80;;;2.20;;
46230;SDS011;31949;51.404;-0.038;2023-11-21T07:57:25;2.95;;;2.42;;
46230;SDS011;31949;51.404;-0.038;2023-11-21T07:59:53;5.35;;;2.33;;
46230;SDS011;31949;51.404;-0.038;2023-11-21T08:02:21;3.58;;;2.10;;
46230;SDS011;31949;51.404;-0.038;2023-11-21T08:04:49;3.83;;;2.13;;
46230;SDS011;31949;51.404;-0.038;2023-11-21T08:07:17;3.15;;;1.90;;
46230;SDS011;31949;51.404;-0.038;2023-11-21T08:09:44;4.80;;;2.83;;
46230;SDS011;31949;51.404;-0.038;2023-11-21T08:12:13;6.03;;;2.15;;
46230;SDS011;31949;51.404;-0.038;2023-11-21T08:14:41;3.75;;;2.28;;
46230;SDS011;31949;51.404;-0.038;2023-11-21T08:17:09;2.67;;;2.10;;
46230;SDS011;31949;51.404;-0.038;2023-11-21T08:19:37;2.95;;;2.05;;
46230;SDS011;31949;51.404;-0.038;2023-11-21T08:22:04;3.50;;;2.40;;
46230;SDS011;31949;51.404;-0.038;2023-11-21T08:24:34;4.20;;;2.08;;
46230;SDS011;31949;51.404;-0.038;2023-11-21T08:27:01;2.42;;;2.05;;
46230;SDS011;31949;51.404;-0.038;2023-11-21T08:29:28;4.25;;;2.25;;
46230;SDS011;31949;51.404;-0.038;2023-11-21T08:31:58;2.70;;;1.73;;
46230;SDS011;31949;51.404;-0.038;2023-11-21T08:34:26;4.13;;;2.05;;
46230;SDS011;31949;51.404;-0.038;2023-11-21T08:36:55;2.28;;;1.60;;
46230;SDS011;31949;51.404;-0.038;2023-11-21T08:39:24;3.60;;;1.88;;
46230;SDS011;31949;51.404;-0.038;2023-11-21T08:41:51;1.70;;;1.30;;
46230;SDS011;31949;51.404;-0.038;2023-11-21T08:44:18;2.85;;;1.70;;
46230;SDS011;31949;51.404;-0.038;2023-11-21T08:46:45;3.33;;;1.88;;
46230;SDS011;31949;51.404;-0.038;2023-11-21T08:49:13;2.25;;;1.95;;
46230;SDS011;31949;51.404;-0.038;2023-11-21T08:51:42;2.90;;;1.50;;
46230;SDS011;31949;51.404;-0.038;2023-11-21T08:54:11;1.98;;;1.75;;
46230;SDS011;31949;51.404;-0.038;2023-11-21T08:56:38;2.65;;;1.70;;
46230;SDS011;31949;51.404;-0.038;2023-11-21T08:59:06;3.33;;;1.60;;
46230;SDS011;31949;51.404;-0.038;2023-11-21T09:01:34;1.98;;;1.17;;
46230;SDS011;31949;51.404;-0.038;2023-11-21T09:04:01;3.45;;;1.38;;
46230;SDS011;31949;51.404;-0.038;2023-11-21T09:06:29;2.22;;;1.30;;
46230;SDS011;31949;51.404;-0.038;2023-11-21T09:08:56;3.05;;;1.33;;
46230;SDS011;31949;51.404;-0.038;2023-11-21T09:11:23;2.10;;;1.77;;
46230;SDS011;31949;51.404;-0.038;2023-11-21T09:13:51;2.50;;;1.50;;
46230;SDS011;31949;51.404;-0.038;2023-11-21T09:16:19;6.70;;;2.08;;
46230;SDS011;31949;51.404;-0.038;2023-11-21T09:18:46;7.00;;;2.58;;
46230;SDS011;31949;51.404;-0.038;2023-11-21T09:21:13;2.42;;;1.60;;
46230;SDS011;31949;51.404;-0.038;2023-11-21T09:23:42;2.85;;;1.65;;
46230;SDS011;31949;51.404;-0.038;2023-11-21T09:26:13;4.40;;;1.60;;
46230;SDS011;31949;51.404;-0.038;2023-11-21T09:28:45;2.72;;;1.60;;
46230;SDS011;31949;51.404;-0.038;2023-11-21T09:31:15;3.33;;;1.15;;
46230;SDS011;31949;51.404;-0.038;2023-11-21T09:33:43;3.15;;;1.60;;
46230;SDS011;31949;51.404;-0.038;2023-11-21T09:36:11;5.80;;;1.90;;
46230;SDS011;31949;51.404;-0.038;2023-11-21T09:38:42;5.13;;;1.60;;
46230;SDS011;31949;51.404;-0.038;2023-11-21T09:41:21;3.90;;;1.63;;
46230;SDS011;31949;51.404;-0.038;2023-11-21T09:43:58;3.42;;;1.70;;
46230;SDS011;31949;51.404;-0.038;2023-11-21T09:46:27;1.17;;;1.08;;
46230;SDS011;31949;51.404;-0.038;2023-11-21T09:48:57;2.17;;;1.20;;
46230;SDS011;31949;51.404;-0.038;2023-11-21T09:51:28;3.55;;;1.50;;
46230;SDS011;31949;51.404;-0.038;2023-11-21T09:53:59;5.03;;;1.33;;
46230;SDS011;31949;51.404;-0.038;2023-11-21T09:56:32;2.08;;;1.30;;
46230;SDS011;31949;51.404;-0.038;2023-11-21T09:59:00;1.08;;;1.02;;
46230;SDS011;31949;51.404;-0.038;2023-11-21T10:01:33;1.27;;;1.00;;
46230;SDS011;31949;51.404;-0.038;2023-11-21T10:04:03;4.65;;;1.42;;
46230;SDS011;31949;51.404;-0.038;2023-11-21T10:06:32;2.83;;;1.25;;
46230;SDS011;31949;51.404;-0.038;2023-11-21T10:08:59;3.28;;;1.30;;
46230;SDS011;31949;51.404;-0.038;2023-11-21T10:11:27;3.25;;;1.77;;
46230;SDS011;31949;51.404;-0.038;2023-11-21T10:13:56;1.27;;;1.17;;
46230;SDS011;31949;51.404;-0.038;2023-11-21T10:16:26;3.55;;;1.40;;
46230;SDS011;31949;51.404;-0.038;2023-11-21T10:18:55;2.70;;;1.50;;
46230;SDS011;31949;51.404;-0.038;2023-11-21T10:21:39;2.23;;;1.40;;
46230;SDS011;31949;51.404;-0.038;2023-11-21T10:24:07;3.60;;;1.65;;
46230;SDS011;31949;51.404;-0.038;2023-11-21T10:26:34;2.47;;;1.75;;
46230;SDS011;31949;51.404;-0.038;2023-11-21T10:29:18;2.90;;;1.20;;
46230;SDS011;31949;51.404;-0.038;2023-11-21T10:31:49;1.90;;;1.17;;
46230;SDS011;31949;51.404;-0.038;2023-11-21T10:34:19;1.13;;;1.00;;
46230;SDS011;31949;51.404;-0.038;2023-11-21T10:36:47;1.38;;;1.10;;
46230;SDS011;31949;51.404;-0.038;2023-11-21T10:39:18;2.45;;;1.15;;
46230;SDS011;31949;51.404;-0.038;2023-11-21T10:41:47;2.25;;;1.30;;
46230;SDS011;31949;51.404;-0.038;2023-11-21T10:44:15;1.48;;;1.00;;
46230;SDS011;31949;51.404;-0.038;2023-11-21T10:46:49;1.52;;;1.00;;
46230;SDS011;31949;51.404;-0.038;2023-11-21T10:49:19;1.40;;;0.90;;
46230;SDS011;31949;51.404;-0.038;2023-11-21T10:51:47;1.88;;;0.80;;
46230;SDS011;31949;51.404;-0.038;2023-11-21T10:54:22;1.13;;;1.00;;
46230;SDS011;31949;51.404;-0.038;2023-11-21T10:56:58;1.38;;;0.93;;
46230;SDS011;31949;51.404;-0.038;2023-11-21T10:59:30;1.13;;;0.93;;
46230;SDS011;31949;51.404;-0.038;2023-11-21T11:04:30;2.05;;;0.90;;
46230;SDS011;31949;51.404;-0.038;2023-11-21T11:06:58;1.23;;;1.13;;
46230;SDS011;31949;51.404;-0.038;2023-11-21T11:09:32;2.97;;;1.17;;
46230;SDS011;31949;51.404;-0.038;2023-11-21T11:12:03;2.35;;;0.65;;
46230;SDS011;31949;51.404;-0.038;2023-11-21T11:14:33;0.80;;;0.80;;
46230;SDS011;31949;51.404;-0.038;2023-11-21T11:17:01;2.60;;;1.05;;
46230;SDS011;31949;51.404;-0.038;2023-11-21T11:19:30;3.00;;;1.05;;
46230;SDS011;31949;51.404;-0.038;2023-11-21T11:27:57;1.00;;;0.70;;
46230;SDS011;31949;51.404;-0.038;2023-11-21T11:30:36;1.38;;;1.02;;
46230;SDS011;31949;51.404;-0.038;2023-11-21T11:38:47;3.72;;;1.35;;
46230;SDS011;31949;51.404;-0.038;2023-11-21T11:41:26;1.58;;;0.98;;
46230;SDS011;31949;51.404;-0.038;2023-11-21T11:43:56;4.40;;;2.67;;
46230;SDS011;31949;51.404;-0.038;2023-11-21T11:46:41;1.35;;;0.90;;
46230;SDS011;31949;51.404;-0.038;2023-11-21T11:49:24;4.85;;;1.55;;
46230;SDS011;31949;51.404;-0.038;2023-11-21T11:54:59;2.92;;;1.00;;
46230;SDS011;31949;51.404;-0.038;2023-11-21T11:57:30;3.72;;;1.30;;
46230;SDS011;31949;51.404;-0.038;2023-11-21T12:00:12;3.22;;;1.92;;
46230;SDS011;31949;51.404;-0.038;2023-11-21T12:02:50;2.50;;;1.80;;
46230;SDS011;31949;51.404;-0.038;2023-11-21T12:05:19;1.85;;;1.35;;
46230;SDS011;31949;51.404;-0.038;2023-11-21T12:10:24;2.03;;;1.55;;
46230;SDS011;31949;51.404;-0.038;2023-11-21T12:12:59;2.45;;;1.40;;
46230;SDS011;31949;51.404;-0.038;2023-11-21T12:15:37;4.88;;;2.40;;
46230;SDS011;31949;51.404;-0.038;2023-11-21T12:18:07;6.40;;;2.20;;
46230;SDS011;31949;51.404;-0.038;2023-11-21T12:20:35;3.85;;;3.00;;
46230;SDS011;31949;51.404;-0.038;2023-11-21T12:23:06;3.60;;;2.78;;
46230;SDS011;31949;51.404;-0.038;2023-11-21T12:25:35;2.15;;;1.92;;
46230;SDS011;31949;51.404;-0.038;2023-11-21T12:28:03;5.90;;;2.10;;
46230;SDS011;31949;51.404;-0.038;2023-11-21T12:30:36;4.25;;;2.25;;
46230;SDS011;31949;51.404;-0.038;2023-11-21T12:33:05;2.20;;;1.95;;
46230;SDS011;31949;51.404;-0.038;2023-11-21T12:35:36;3.08;;;2.10;;
46230;SDS011;31949;51.404;-0.038;2023-11-21T12:38:04;2.50;;;1.92;;
46230;SDS011;31949;51.404;-0.038;2023-11-21T12:40:32;3.47;;;2.55;;
46230;SDS011;31949;51.404;-0.038;2023-11-21T12:43:00;2.63;;;2.20;;
46230;SDS011;31949;51.404;-0.038;2023-11-21T12:45:31;3.92;;;2.80;;
46230;SDS011;31949;51.404;-0.038;2023-11-21T12:48:04;3.70;;;2.40;;
46230;SDS011;31949;51.404;-0.038;2023-11-21T12:50:38;6.00;;;2.45;;
46230;SDS011;31949;51.404;-0.038;2023-11-21T12:53:07;3.03;;;2.65;;
46230;SDS011;31949;51.404;-0.038;2023-11-21T12:55:37;2.80;;;2.20;;
46230;SDS011;31949;51.404;-0.038;2023-11-21T12:58:05;2.40;;;2.20;;
46230;SDS011;31949;51.404;-0.038;2023-11-21T13:00:40;3.28;;;1.92;;
46230;SDS011;31949;51.404;-0.038;2023-11-21T13:05:44;3.13;;;2.08;;
46230;SDS011;31949;51.404;-0.038;2023-11-21T13:08:14;1.80;;;1.70;;
46230;SDS011;31949;51.404;-0.038;2023-11-21T13:10:47;3.83;;;2.20;;
46230;SDS011;31949;51.404;-0.038;2023-11-21T13:13:19;2.30;;;2.00;;
46230;SDS011;31949;51.404;-0.038;2023-11-21T13:15:51;2.35;;;2.00;;
46230;SDS011;31949;51.404;-0.038;2023-11-21T13:20:50;2.22;;;2.03;;
46230;SDS011;31949;51.404;-0.038;2023-11-21T13:23:19;3.58;;;2.10;;
46230;SDS011;31949;51.404;-0.038;2023-11-21T13:25:46;5.97;;;2.70;;
46230;SDS011;31949;51.404;-0.038;2023-11-21T13:28:27;4.15;;;2.80;;
46230;SDS011;31949;51.404;-0.038;2023-11-21T13:30:59;2.77;;;1.83;;
46230;SDS011;31949;51.404;-0.038;2023-11-21T13:33:38;2.70;;;2.13;;
46230;SDS011;31949;51.404;-0.038;2023-11-21T13:36:08;2.03;;;1.13;;
46230;SDS011;31949;51.404;-0.038;2023-11-21T13:38:37;2.42;;;1.25;;
46230;SDS011;31949;51.404;-0.038;2023-11-21T13:41:09;1.17;;;0.98;;
46230;SDS011;31949;51.404;-0.038;2023-11-21T13:43:39;0.93;;;0.93;;
46230;SDS011;31949;51.404;-0.038;2023-11-21T13:46:10;1.10;;;0.80;;
46230;SDS011;31949;51.404;-0.038;2023-11-21T13:48:43;1.10;;;0.32;;
46230;SDS011;31949;51.404;-0.038;2023-11-21T13:51:18;0.38;;;0.38;;
46230;SDS011;31949;51.404;-0.038;2023-11-21T13:53:47;1.25;;;0.45;;
46230;SDS011;31949;51.404;-0.038;2023-11-21T13:56:17;0.70;;;0.45;;
46230;SDS011;31949;51.404;-0.038;2023-11-21T13:58:53;4.28;;;0.50;;
46230;SDS011;31949;51.404;-0.038;2023-11-21T14:01:23;3.28;;;1.10;;
46230;SDS011;31949;51.404;-0.038;2023-11-21T14:04:01;2.90;;;0.93;;
46230;SDS011;31949;51.404;-0.038;2023-11-21T14:06:35;4.22;;;1.08;;
46230;SDS011;31949;51.404;-0.038;2023-11-21T14:09:18;2.40;;;0.80;;
46230;SDS011;31949;51.404;-0.038;2023-11-21T14:12:02;1.55;;;0.90;;
46230;SDS011;31949;51.404;-0.038;2023-11-21T14:14:33;3.15;;;1.35;;
46230;SDS011;31949;51.404;-0.038;2023-11-21T14:17:01;3.05;;;1.00;;
46230;SDS011;31949;51.404;-0.038;2023-11-21T14:19:33;2.25;;;0.90;;
46230;SDS011;31949;51.404;-0.038;2023-11-21T14:22:03;5.15;;;1.30;;
46230;SDS011;31949;51.404;-0.038;2023-11-21T14:24:30;3.45;;;1.30;;
46230;SDS011;31949;51.404;-0.038;2023-11-21T14:26:59;3.85;;;1.30;;
46230;SDS011;31949;51.404;-0.038;2023-11-21T14:29:26;4.10;;;1.23;;
46230;SDS011;31949;51.404;-0.038;2023-11-21T14:31:56;4.65;;;1.27;;
46230;SDS011;31949;51.404;-0.038;2023-11-21T14:34:24;6.40;;;1.63;;
46230;SDS011;31949;51.404;-0.038;2023-11-21T14:36:53;4.50;;;1.52;;
46230;SDS011;31949;51.404;-0.038;2023-11-21T14:39:21;2.55;;;0.90;;
46230;SDS011;31949;51.404;-0.038;2023-11-21T14:41:54;2.92;;;0.90;;
46230;SDS011;31949;51.404;-0.038;2023-11-21T14:44:23;5.28;;;0.90;;
46230;SDS011;31949;51.404;-0.038;2023-11-21T14:46:53;1.83;;;0.82;;
46230;SDS011;31949;51.404;-0.038;2023-11-21T14:49:24;3.33;;;1.10;;
46230;SDS011;31949;51.404;-0.038;2023-11-21T14:51:54;3.03;;;0.77;;
46230;SDS011;31949;51.404;-0.038;2023-11-21T14:54:22;6.35;;;1.55;;
46230;SDS011;31949;51.404;-0.038;2023-11-21T14:57:09;5.28;;;1.40;;
46230;SDS011;31949;51.404;-0.038;2023-11-21T14:59:45;4.97;;;1.67;;
46230;SDS011;31949;51.404;-0.038;2023-11-21T15:02:24;8.98;;;1.38;;
46230;SDS011;31949;51.404;-0.038;2023-11-21T15:05:11;7.10;;;2.38;;
46230;SDS011;31949;51.404;-0.038;2023-11-21T15:07:43;9.70;;;2.97;;
46230;SDS011;31949;51.404;-0.038;2023-11-21T15:10:16;7.50;;;3.08;;